Airfield :
LOGIN :

Register | Disclaimer

   EN    FR    IT 

 










Legend :    VFR   Marginal VFR   IFR   Intensive IFR   Very Intensive IFR
Visi :
Ceiling :
>= 8 km
>= 3000ft
5 to 8 km
1000 to 3000 ft
1500m to 5 km
500 to 1000 ft
800 to 1500m
200 to 500 ft
< 800m
< 200 ft
Symbols :   Thunderstorms  Fog  Heavy snow  Heavy precipitations  Wind > 20 kt
SIGMETs :     Misc.  Thunderstorms  Icing  Turbulence  Mountain Waves  Volcanic Ashes







- Airport Elevation : 1363 ft


ETIC - Grafenwohr Army Air Field

CURRENT METAR :
  • 190256Z AUTO 00000KT 3000 R32/1400 -SN BR OVC004 01/00 A2988 RMK AO2 SLP137 P0006 60010 T00050004 57015 $

EXPIRED METARs :
  • 190241Z AUTO 00000KT 4400 -SN BR OVC004 01/00 A2988 RMK AO2 VIS 3600V5000 SLP137 $
  • 190226Z AUTO 24003KT 3000 R32/1400 -SN BR BKN004 OVC009 01/00 A2988 RMK AO2 SLP137 $
  • 190211Z AUTO 00000KT 4000 -SN BR BKN005 OVC012 01/00 A2988 RMK AO2 SLP137 $
  • 190156Z AUTO 26003KT 4400 -SN BR BKN006 OVC014 01/01 A2989 RMK AO2 VIS 4400V8000 RAE36SNB36 SLP140 P0003 T00090005 $
  • 190111Z AUTO 24004KT 9999 -RA OVC007 02/01 A2990 RMK AO2 OVC V BKN SLP144 $
  • 190056Z AUTO 25005KT 9999 -RA BKN006 OVC011 02/01 A2990 RMK AO2 SLP144 P0001 T00170010 $
  • 190051Z AUTO 23007KT 9999 -RA BKN007 OVC011 02/01 A2990 RMK AO2 SLP144 $
  • 190021Z 23004KT 9999 -RA FEW006 BKN014 OVC019 02/00 A2992 RMK AO2A SLPNO ALSTG ESTMD $
  • 190011Z 23006KT 9999 -RA BKN014 OVC021 02/00 A2993 RMK AO2A SLPNO ALSTG ESTMD $

TAF AMD TAF ETIC
Valid from the 19 at 02:00 until the 20 at 04:00 UTC


190243Z 1902/2004 24009KT 5000 -SN BKN004 OVC009 620209 QNH2986INS
TEMPO 1903/1906 3200 -SN OVC005
BECMG 1907/1908 29012G18KT 9999 NSW SCT005 BKN010 620206 QNH2996INS
BECMG 1911/1912 27015G25KT 8000 -RASN BKN020 620206 520004 QNH2998INS TX04/1912Z TN00/1906Z
No reported NOTAMs for that airfield.



MET'MAP, your aeronautical weather chart ! - Copyright ORBIFLY December 2007 - Disclaimer

ORBIFLY MET'MAP TEAM :

Programming & Development : Alexandra Zaïnal
Concept & Development : Baudouin d'Aumeries
Co-Development & Prog : Marc-Olivier Méhu
Technical & hardware support : Manuel Goepfert

Contact : metmap@orbifly.com




SOURCES & CREDITS :

   NOAA